TimeAKDT,TemperatureF,Dew PointF,Humidity,Sea Level PressureIn,VisibilityMPH,Wind Direction,Wind SpeedMPH,Gust SpeedMPH,PrecipitationIn,Events,Conditions,WindDirDegrees,DateUTC
12:53 AM,57.0,44.1,62,30.17,10.0,SW,3.5,-,N/A,,Clear,220,2013-06-12 08:53:00
1:53 AM,51.1,41.0,68,30.17,10.0,SW,4.6,-,N/A,,Mostly Cloudy,230,2013-06-12 09:53:00
2:53 AM,48.9,39.9,71,30.16,10.0,SW,5.8,-,N/A,,Clear,230,2013-06-12 10:53:00
3:53 AM,46.0,39.9,79,30.16,10.0,SW,4.6,-,N/A,,Clear,230,2013-06-12 11:53:00
4:53 AM,45.0,39.0,80,30.17,10.0,SW,4.6,-,N/A,,Clear,230,2013-06-12 12:53:00
5:53 AM,45.0,39.0,80,30.16,10.0,SW,4.6,-,N/A,,Clear,220,2013-06-12 13:53:00
6:53 AM,48.0,41.0,77,30.16,10.0,SW,3.5,-,N/A,,Clear,230,2013-06-12 14:53:00
7:53 AM,54.0,45.0,72,30.15,10.0,Calm,Calm,-,N/A,,Clear,0,2013-06-12 15:53:00
8:53 AM,62.1,46.0,56,30.15,10.0,NE,5.8,-,N/A,,Clear,50,2013-06-12 16:53:00
9:53 AM,64.9,43.0,45,30.14,10.0,NE,8.1,-,N/A,,Clear,50,2013-06-12 17:53:00
10:53 AM,68.0,42.1,39,30.13,10.0,NE,9.2,-,N/A,,Clear,50,2013-06-12 18:53:00
11:53 AM,70.0,45.0,41,30.12,10.0,NE,9.2,-,N/A,,Clear,40,2013-06-12 19:53:00
12:53 PM,69.1,42.1,38,30.10,10.0,NNE,10.4,-,N/A,,Mostly Cloudy,20,2013-06-12 20:53:00
1:53 PM,75.0,39.9,28,30.09,10.0,NNE,8.1,-,N/A,,Partly Cloudy,30,2013-06-12 21:53:00
2:53 PM,75.0,39.9,28,30.07,10.0,NNE,11.5,-,N/A,,Partly Cloudy,20,2013-06-12 22:53:00
3:53 PM,75.9,37.9,25,30.06,10.0,Variable,5.8,-,N/A,,Clear,0,2013-06-12 23:53:00
4:53 PM,75.9,39.9,27,30.04,10.0,NE,11.5,-,N/A,,Clear,40,2013-06-13 00:53:00
5:53 PM,75.9,41.0,29,30.03,10.0,NNE,10.4,-,N/A,,Clear,30,2013-06-13 01:53:00
6:53 PM,75.0,39.9,28,30.02,10.0,NNE,12.7,-,N/A,,Clear,30,2013-06-13 02:53:00
7:53 PM,75.9,39.9,27,30.01,10.0,NE,10.4,-,N/A,,Clear,40,2013-06-13 03:53:00
8:53 PM,73.9,41.0,30,30.01,10.0,NNE,9.2,-,N/A,,Clear,30,2013-06-13 04:53:00
9:53 PM,72.0,42.1,34,30.01,10.0,NNE,6.9,-,N/A,,Clear,30,2013-06-13 05:53:00
10:53 PM,69.1,43.0,39,30.02,10.0,NE,5.8,-,N/A,,Clear,40,2013-06-13 06:53:00
11:53 PM,66.0,43.0,43,30.02,9.0,Calm,Calm,-,N/A,,Clear,0,2013-06-13 07:53:00